Time;durP1;ratioP1;P1;durP2;ratioP2;P2;SDS_P1;SDS_P2;PMS_P1;PMS_P2;Temp;Humidity;BMP_temperature;BMP_pressure;BME280_temperature;BME280_humidity;BME280_pressure;Samples;Min_cycle;Max_cycle;Signal;HPM_P1;HPM_P2
2021/05/08 00:09:31;;;;;;;4.43;2.75;;;21.30;41.80;;;;;;20840788;28;20111;-59
2021/05/08 00:19:33;;;;;;;8.00;4.25;;;21.20;42.80;;;;;;20838935;28;20474;-61
2021/05/08 00:29:34;;;;;;;7.75;3.63;;;21.10;43.00;;;;;;20839088;28;20104;-61
2021/05/08 00:39:35;;;;;;;5.63;2.83;;;20.80;44.40;;;;;;20839040;28;20060;-60
2021/05/08 00:49:38;;;;;;;6.82;3.03;;;20.40;45.50;;;;;;20838627;28;20052;-61
2021/05/08 00:59:40;;;;;;;5.25;2.80;;;20.10;46.50;;;;;;20837268;28;20053;-61
2021/05/08 01:09:42;;;;;;;5.95;3.63;;;19.80;47.10;;;;;;20836979;28;20418;-61
2021/05/08 01:19:43;;;;;;;5.07;3.00;;;19.70;47.60;;;;;;20835999;28;20052;-62
2021/05/08 01:29:44;;;;;;;4.93;2.70;;;19.60;48.30;;;;;;20833578;28;20481;-61
2021/05/08 01:39:45;;;;;;;6.20;2.75;;;19.40;49.00;;;;;;20834662;28;20501;-61
2021/05/08 01:49:46;;;;;;;7.68;3.63;;;19.20;49.30;;;;;;20834224;28;20045;-61
2021/05/08 01:59:48;;;;;;;6.82;3.22;;;19.20;49.60;;;;;;20833017;28;20477;-58
2021/05/08 02:09:49;;;;;;;4.40;2.88;;;19.20;50.40;;;;;;20832306;28;20046;-62
2021/05/08 02:19:50;;;;;;;5.00;2.72;;;18.70;51.50;;;;;;20831076;28;20057;-61
2021/05/08 02:29:52;;;;;;;4.50;3.22;;;18.50;52.30;;;;;;20831001;28;20045;-62
2021/05/08 02:39:53;;;;;;;4.22;2.60;;;18.20;52.90;;;;;;20829523;28;20405;-61
2021/05/08 02:49:54;;;;;;;4.80;2.75;;;18.00;53.00;;;;;;20829730;28;20075;-59
2021/05/08 02:59:56;;;;;;;5.43;2.40;;;17.70;53.90;;;;;;20829285;28;20513;-59
2021/05/08 03:09:57;;;;;;;3.78;2.40;;;17.70;54.10;;;;;;20828070;28;20091;-59
2021/05/08 03:19:58;;;;;;;3.50;2.40;;;17.70;54.30;;;;;;20828328;28;20374;-61
2021/05/08 03:30:01;;;;;;;4.05;2.60;;;17.60;54.40;;;;;;20828605;28;20421;-60
2021/05/08 03:40:03;;;;;;;4.35;2.53;;;17.30;55.30;;;;;;20827716;28;20076;-57
2021/05/08 03:50:05;;;;;;;3.95;2.70;;;17.30;55.60;;;;;;20831478;28;20045;-59
2021/05/08 04:00:06;;;;;;;3.72;2.63;;;17.20;56.00;;;;;;20842298;28;20080;-60
2021/05/08 04:10:08;;;;;;;6.40;2.80;;;17.10;56.20;;;;;;20841376;28;20049;-62
2021/05/08 04:20:10;;;;;;;4.63;2.60;;;17.10;56.50;;;;;;20840776;28;20379;-60
2021/05/08 04:30:12;;;;;;;5.85;2.55;;;17.00;56.70;;;;;;20839949;28;20054;-60
2021/05/08 04:40:13;;;;;;;4.07;2.50;;;16.80;57.10;;;;;;20839915;28;20091;-61
2021/05/08 04:50:15;;;;;;;3.05;2.30;;;16.70;57.20;;;;;;20840451;28;20053;-63
2021/05/08 05:00:17;;;;;;;5.22;2.75;;;16.50;57.30;;;;;;20838578;28;20478;-61
2021/05/08 05:10:18;;;;;;;5.30;2.50;;;16.40;57.60;;;;;;20839467;28;20379;-61
2021/05/08 05:20:19;;;;;;;4.13;2.92;;;16.10;58.30;;;;;;20836645;28;20413;-62
2021/05/08 05:30:22;;;;;;;5.63;2.80;;;16.10;58.10;;;;;;20835405;28;20624;-61
2021/05/08 05:40:23;;;;;;;5.97;3.03;;;16.10;58.20;;;;;;20835510;28;20052;-62
2021/05/08 05:50:25;;;;;;;4.90;2.65;;;15.90;58.70;;;;;;20833855;28;20099;-61
2021/05/08 06:00:27;;;;;;;4.00;2.53;;;15.90;59.00;;;;;;20833013;28;20053;-62
2021/05/08 06:10:28;;;;;;;6.05;3.47;;;16.00;58.70;;;;;;20832036;28;20410;-61
2021/05/08 06:20:29;;;;;;;5.85;3.65;;;16.10;58.10;;;;;;20830895;28;20487;-62
2021/05/08 06:30:31;;;;;;;5.50;4.05;;;16.20;58.00;;;;;;20830810;28;20115;-58
2021/05/08 06:40:32;;;;;;;7.40;3.25;;;16.30;57.50;;;;;;20829445;28;20053;-58
2021/05/08 06:50:34;;;;;;;7.03;3.20;;;16.90;56.20;;;;;;20830029;28;20042;-59
2021/05/08 07:00:35;;;;;;;10.27;3.20;;;17.70;54.50;;;;;;20829093;28;20049;-62
2021/05/08 07:10:48;;;;;;;5.00;3.40;;;18.20;52.90;;;;;;20828927;28;20049;-60
2021/05/08 07:20:49;;;;;;;7.68;3.90;;;18.90;51.50;;;;;;20828098;28;20413;-62
2021/05/08 07:30:52;;;;;;;8.13;4.22;;;19.60;49.70;;;;;;20841634;28;20064;-62
2021/05/08 07:40:54;;;;;;;7.40;4.63;;;20.20;47.70;;;;;;20843896;28;20501;-63
2021/05/08 07:50:55;;;;;;;8.77;4.45;;;20.70;46.40;;;;;;20842803;28;20076;-63
2021/05/08 08:00:56;;;;;;;7.85;4.75;;;21.40;45.00;;;;;;20841008;28;20083;-63
2021/05/08 08:10:59;;;;;;;6.55;3.40;;;;;;;;;;20841227;28;20052;-64
2021/05/08 08:21:00;;;;;;;5.57;3.03;;;23.60;38.20;;;;;;20843627;28;20045;-63
2021/05/08 08:31:02;;;;;;;4.93;3.55;;;23.00;39.90;;;;;;20839907;28;20548;-61
2021/05/08 08:41:04;;;;;;;7.45;3.30;;;23.00;41.20;;;;;;20838053;28;20050;-59
2021/05/08 08:51:05;;;;;;;9.15;4.10;;;23.40;40.70;;;;;;20836361;28;20482;-65
2021/05/08 09:01:06;;;;;;;6.85;4.40;;;24.10;39.50;;;;;;20835458;28;20112;-63
2021/05/08 09:11:22;;;;;;;13.63;4.00;;;24.20;38.50;;;;;;20835724;28;20120;-63
2021/05/08 09:21:30;;;;;;;11.05;3.80;;;24.10;37.90;;;;;;20834172;28;20045;-61
2021/05/08 09:31:32;;;;;;;5.10;3.22;;;24.40;38.00;;;;;;20833832;28;20107;-62
2021/05/08 09:41:46;;;;;;;27.53;4.63;;;24.70;37.50;;;;;;20834809;28;20418;-62
2021/05/08 09:52:02;;;;;;;4.95;2.65;;;24.80;37.30;;;;;;20832892;28;20168;-62
2021/05/08 10:02:08;;;;;;;10.13;2.67;;;25.00;37.30;;;;;;20832176;28;20052;-61
2021/05/08 10:12:14;;;;;;;4.10;2.20;;;25.10;37.00;;;;;;20831965;28;20405;-61
2021/05/08 10:22:16;;;;;;;6.43;3.17;;;25.10;37.50;;;;;;20830228;28;20107;-62
2021/05/08 10:32:18;;;;;;;;;;;25.20;37.50;;;;;;20830181;28;20417;-62
2021/05/08 10:42:41;;;;;;;5.87;2.97;;;25.30;37.30;;;;;;20884676;28;19956;-62
2021/05/08 10:53:15;;;;;;;3.45;2.25;;;25.60;37.00;;;;;;20894362;28;20141;-61
2021/05/08 11:03:18;;;;;;;6.60;3.25;;;25.90;35.90;;;;;;20821673;28;20088;-61
2021/05/08 11:13:21;;;;;;;6.13;2.00;;;26.00;35.30;;;;;;20818936;28;20045;-61
2021/05/08 11:23:22;;;;;;;4.20;2.40;;;26.20;34.00;;;;;;20819176;28;20058;-61
2021/05/08 11:33:26;;;;;;;5.20;2.88;;;26.50;33.30;;;;;;20842592;28;20084;-62
2021/05/08 11:43:27;;;;;;;9.27;3.20;;;26.70;31.30;;;;;;20910513;28;20049;-60
2021/05/08 11:53:28;;;;;;;8.05;4.25;;;26.80;31.40;;;;;;20908919;28;20055;-60
2021/05/08 12:03:30;;;;;;;11.60;6.95;;;27.10;30.70;;;;;;20908991;28;20041;-62
2021/05/08 12:13:31;;;;;;;8.45;2.50;;;27.30;30.10;;;;;;20915994;28;20059;-62
2021/05/08 12:23:35;;;;;;;5.35;2.40;;;27.60;29.10;;;;;;20922544;28;20049;-61
2021/05/08 12:33:37;;;;;;;7.43;3.50;;;27.70;29.10;;;;;;20921752;28;20086;-61
2021/05/08 12:43:38;;;;;;;;;;;27.90;28.90;;;;;;20921893;28;20524;-63
2021/05/08 12:53:39;;;;;;;9.30;3.30;;;28.20;26.40;;;;;;20920738;28;19921;-64
2021/05/08 13:03:41;;;;;;;5.07;2.40;;;28.50;25.60;;;;;;20921671;28;20500;-62
2021/05/08 13:13:42;;;;;;;6.75;2.88;;;28.60;24.90;;;;;;20918918;28;20412;-62
2021/05/08 13:23:44;;;;;;;6.00;3.50;;;28.60;25.20;;;;;;20917856;28;20130;-62
2021/05/08 13:33:45;;;;;;;6.32;2.88;;;28.90;24.20;;;;;;20917382;28;20147;-60
2021/05/08 13:43:46;;;;;;;7.05;2.70;;;28.80;24.30;;;;;;20916881;28;20045;-60
2021/05/08 13:53:47;;;;;;;7.93;3.80;;;28.90;24.50;;;;;;20916106;28;20080;-60
2021/05/08 14:03:48;;;;;;;13.48;3.38;;;28.90;25.00;;;;;;20915371;28;20076;-61
2021/05/08 14:13:50;;;;;;;5.20;2.75;;;28.90;24.70;;;;;;20914939;28;20485;-63
2021/05/08 14:23:51;;;;;;;8.63;2.80;;;29.00;23.80;;;;;;20913931;28;20073;-61
2021/05/08 14:33:53;;;;;;;4.35;2.13;;;28.90;23.20;;;;;;20911900;28;20079;-62
2021/05/08 14:43:54;;;;;;;6.43;1.92;;;29.00;22.30;;;;;;20913408;28;20049;-63
2021/05/08 14:53:55;;;;;;;6.32;2.97;;;29.10;20.90;;;;;;20910509;28;20059;-61
2021/05/08 15:03:57;;;;;;;3.95;2.10;;;29.00;20.30;;;;;;20911191;28;20044;-60
2021/05/08 15:14:00;;;;;;;4.72;2.33;;;29.00;20.60;;;;;;20910883;28;20077;-61
2021/05/08 15:24:03;;;;;;;7.22;2.08;;;28.90;22.00;;;;;;20911077;28;20045;-60
2021/05/08 15:34:04;;;;;;;4.18;2.35;;;28.80;23.20;;;;;;20910135;28;20053;-61
2021/05/08 15:44:06;;;;;;;3.10;1.90;;;28.70;23.00;;;;;;20911648;28;20106;-61
2021/05/08 15:54:07;;;;;;;3.85;1.58;;;28.50;24.20;;;;;;20924667;28;20053;-61
2021/05/08 16:04:09;;;;;;;4.15;1.95;;;28.60;24.40;;;;;;20923788;28;20099;-60
2021/05/08 16:14:10;;;;;;;4.35;1.75;;;28.60;25.60;;;;;;20923865;28;20544;-60
2021/05/08 16:24:11;;;;;;;7.97;2.20;;;28.40;25.80;;;;;;20923102;28;20429;-62
2021/05/08 16:34:12;;;;;;;5.28;2.10;;;28.30;25.60;;;;;;20921868;28;20045;-61
2021/05/08 16:44:14;;;;;;;3.20;1.45;;;28.20;26.40;;;;;;20921064;28;20052;-63
2021/05/08 16:54:15;;;;;;;3.40;1.90;;;28.10;25.70;;;;;;20920382;28;20053;-61
2021/05/08 17:04:16;;;;;;;3.80;1.73;;;28.20;23.90;;;;;;20934165;28;20505;-61
2021/05/08 17:14:17;;;;;;;5.10;1.85;;;27.90;24.30;;;;;;20919347;28;20060;-61
2021/05/08 17:24:19;;;;;;;5.30;1.60;;;27.80;23.50;;;;;;20918476;28;20103;-61
2021/05/08 17:34:22;;;;;;;4.30;1.63;;;27.80;23.40;;;;;;20917850;28;20139;-62
2021/05/08 17:44:25;;;;;;;4.43;1.92;;;27.70;24.40;;;;;;20916666;28;20045;-61
2021/05/08 17:54:28;;;;;;;4.10;1.63;;;27.50;25.90;;;;;;20915798;28;20095;-62
2021/05/08 18:04:29;;;;;;;4.90;1.70;;;27.30;26.40;;;;;;20915389;28;20045;-62
2021/05/08 18:14:31;;;;;;;4.30;2.00;;;27.10;25.50;;;;;;20913844;28;20053;-62
2021/05/08 18:24:32;;;;;;;;;;;26.90;24.30;;;;;;20914033;28;20056;-61
2021/05/08 18:34:33;;;;;;;3.38;1.70;;;26.60;23.90;;;;;;20913159;28;19920;-62
2021/05/08 18:44:34;;;;;;;4.25;1.88;;;26.60;23.10;;;;;;20912385;28;20049;-62
2021/05/08 18:54:35;;;;;;;7.13;2.33;;;26.40;23.70;;;;;;20912573;28;20403;-61
2021/05/08 19:04:37;;;;;;;4.73;2.53;;;26.20;24.50;;;;;;20911690;28;20302;-63
2021/05/08 19:14:39;;;;;;;10.50;3.67;;;26.10;25.30;;;;;;20910832;28;20311;-62
2021/05/08 19:24:42;;;;;;;6.07;1.92;;;25.90;26.20;;;;;;20921013;28;20053;-60
2021/05/08 19:34:51;;;;;;;3.80;2.20;;;25.70;26.50;;;;;;20927197;28;20516;-61
2021/05/08 19:44:52;;;;;;;7.72;3.00;;;25.50;26.60;;;;;;20926720;28;20511;-63
2021/05/08 19:54:54;;;;;;;29.33;24.27;;;25.30;26.90;;;;;;20939538;28;20110;-62
2021/05/08 20:04:55;;;;;;;7.88;4.72;;;25.00;27.30;;;;;;20924152;28;20049;-62
2021/05/08 20:14:57;;;;;;;7.47;2.97;;;24.90;27.30;;;;;;20923523;28;20433;-61
2021/05/08 20:24:58;;;;;;;7.43;3.50;;;24.60;28.00;;;;;;20922470;28;20103;-62
2021/05/08 20:34:59;;;;;;;85.80;77.23;;;24.50;28.50;;;;;;20922025;28;20490;-61
2021/05/08 20:45:00;;;;;;;13.57;3.13;;;24.30;29.60;;;;;;20921958;28;20076;-62
2021/05/08 20:55:03;;;;;;;9.57;3.87;;;24.10;29.90;;;;;;20919241;28;20107;-61
2021/05/08 21:05:05;;;;;;;10.35;3.65;;;24.00;30.20;;;;;;20919845;28;20409;-62
2021/05/08 21:15:07;;;;;;;11.43;3.90;;;23.80;30.80;;;;;;20922033;28;20084;-62
2021/05/08 21:25:09;;;;;;;6.93;3.88;;;23.60;31.50;;;;;;20930139;28;20461;-62
2021/05/08 21:35:11;;;;;;;10.20;5.27;;;23.60;31.80;;;;;;20924486;28;20049;-62
2021/05/08 21:45:12;;;;;;;10.57;4.43;;;23.30;32.40;;;;;;20917616;28;20421;-61
2021/05/08 21:55:14;;;;;;;10.13;4.20;;;23.20;33.00;;;;;;20916941;28;20458;-61
2021/05/08 22:05:16;;;;;;;10.30;4.73;;;23.00;33.50;;;;;;20915274;28;20049;-59
2021/05/08 22:15:17;;;;;;;7.03;3.87;;;22.80;34.10;;;;;;20914255;28;20099;-60
2021/05/08 22:25:19;;;;;;;8.00;4.30;;;22.70;33.90;;;;;;20914185;28;20080;-61
2021/05/08 22:35:21;;;;;;;16.33;4.10;;;22.60;34.40;;;;;;20912630;28;20053;-61
2021/05/08 22:45:22;;;;;;;6.57;3.20;;;22.50;34.20;;;;;;20912926;28;20052;-62
2021/05/08 22:55:24;;;;;;;8.32;3.40;;;22.40;32.70;;;;;;20911799;28;20465;-62
2021/05/08 23:05:25;;;;;;;10.30;3.80;;;22.20;33.30;;;;;;20910726;28;20079;-60
2021/05/08 23:15:27;;;;;;;7.03;3.25;;;22.00;34.50;;;;;;20911926;28;20044;-61
2021/05/08 23:25:28;;;;;;;9.60;3.47;;;21.90;34.40;;;;;;20911651;28;20056;-61
2021/05/08 23:35:29;;;;;;;6.13;4.00;;;21.70;34.40;;;;;;20911400;28;20502;-62
2021/05/08 23:45:30;;;;;;;9.25;3.80;;;21.50;35.10;;;;;;20910648;28;20505;-61
2021/05/08 23:55:31;;;;;;;9.43;3.95;;;21.60;34.70;;;;;;20911357;28;20044;-60
